Itaicaba, Brazil
Current Conditions -  °F | °C
As of 7:00 PM on Thursday 27 Nov 2014 (Local Time) from SBMS Reporting Station
Broken Clouds Broken Clouds  
Wind Chill: 82°   Ceiling: 2500
Heat Index: 88°   Visibility: 6mi
Dew Point: 73°   Wind: 8mph
Humidity: 74%   Direction: 40°NE
Pressure: 29.88"   Gusts: NA
Location:  4.68°S, 37.82°W
Report Text: SBMS 272200Z 04007KT 9999 BKN025 28/23 Q1012
Loading
Personal Weather Stations






























Interactive Weather Map New forecast layout! Learn more

10-Day Weather Forecast

Advertisements
Track Severe Weather on mobile